sensor_id;sensor_type;location;lat;lon;timestamp;temperature;humidity
42989;DHT22;28622;43.716;20.668;2023-03-15T00:00:53;10.50;91.60
42989;DHT22;28622;43.716;20.668;2023-03-15T00:03:20;10.50;91.60
42989;DHT22;28622;43.716;20.668;2023-03-15T00:05:48;10.40;91.70
42989;DHT22;28622;43.716;20.668;2023-03-15T00:08:14;10.20;91.80
42989;DHT22;28622;43.716;20.668;2023-03-15T00:10:45;10.10;92.40
42989;DHT22;28622;43.716;20.668;2023-03-15T00:13:11;10.10;92.40
42989;DHT22;28622;43.716;20.668;2023-03-15T00:15:49;10.00;92.90
42989;DHT22;28622;43.716;20.668;2023-03-15T00:18:16;9.80;93.10
42989;DHT22;28622;43.716;20.668;2023-03-15T00:20:43;9.70;93.10
42989;DHT22;28622;43.716;20.668;2023-03-15T00:23:09;9.70;92.70
42989;DHT22;28622;43.716;20.668;2023-03-15T00:25:38;9.70;93.00
42989;DHT22;28622;43.716;20.668;2023-03-15T00:28:05;9.60;92.70
42989;DHT22;28622;43.716;20.668;2023-03-15T00:30:31;9.60;93.20
42989;DHT22;28622;43.716;20.668;2023-03-15T00:32:57;9.40;93.60
42989;DHT22;28622;43.716;20.668;2023-03-15T00:35:23;9.40;93.30
42989;DHT22;28622;43.716;20.668;2023-03-15T00:37:54;9.40;93.30
42989;DHT22;28622;43.716;20.668;2023-03-15T00:40:20;9.30;93.20
42989;DHT22;28622;43.716;20.668;2023-03-15T00:42:45;9.30;93.60
42989;DHT22;28622;43.716;20.668;2023-03-15T00:45:16;9.20;93.80
42989;DHT22;28622;43.716;20.668;2023-03-15T00:47:42;9.10;93.80
42989;DHT22;28622;43.716;20.668;2023-03-15T00:50:08;9.00;93.80
42989;DHT22;28622;43.716;20.668;2023-03-15T00:52:37;9.00;93.90
42989;DHT22;28622;43.716;20.668;2023-03-15T00:55:04;8.90;94.50
42989;DHT22;28622;43.716;20.668;2023-03-15T00:57:32;8.80;94.40
42989;DHT22;28622;43.716;20.668;2023-03-15T00:59:58;8.80;94.70
42989;DHT22;28622;43.716;20.668;2023-03-15T01:02:24;8.80;94.60
42989;DHT22;28622;43.716;20.668;2023-03-15T01:04:50;8.70;94.90
42989;DHT22;28622;43.716;20.668;2023-03-15T01:07:16;8.60;95.20
42989;DHT22;28622;43.716;20.668;2023-03-15T01:09:42;8.50;95.40
42989;DHT22;28622;43.716;20.668;2023-03-15T01:12:09;8.60;95.60
42989;DHT22;28622;43.716;20.668;2023-03-15T01:14:35;8.60;95.70
42989;DHT22;28622;43.716;20.668;2023-03-15T01:17:02;8.50;96.00
42989;DHT22;28622;43.716;20.668;2023-03-15T01:19:27;8.50;95.90
42989;DHT22;28622;43.716;20.668;2023-03-15T01:21:53;8.50;95.70
42989;DHT22;28622;43.716;20.668;2023-03-15T01:24:19;8.40;96.00
42989;DHT22;28622;43.716;20.668;2023-03-15T01:26:44;8.30;96.00
42989;DHT22;28622;43.716;20.668;2023-03-15T01:29:10;8.20;95.90
42989;DHT22;28622;43.716;20.668;2023-03-15T01:31:38;8.10;96.10
42989;DHT22;28622;43.716;20.668;2023-03-15T01:34:04;8.10;96.30
42989;DHT22;28622;43.716;20.668;2023-03-15T01:36:30;8.10;96.20
42989;DHT22;28622;43.716;20.668;2023-03-15T01:38:56;8.20;96.10
42989;DHT22;28622;43.716;20.668;2023-03-15T01:41:21;8.20;96.00
42989;DHT22;28622;43.716;20.668;2023-03-15T01:43:49;8.20;95.90
42989;DHT22;28622;43.716;20.668;2023-03-15T01:46:33;8.20;96.00
42989;DHT22;28622;43.716;20.668;2023-03-15T01:54:09;8.00;96.80
42989;DHT22;28622;43.716;20.668;2023-03-15T01:56:40;7.80;96.60
42989;DHT22;28622;43.716;20.668;2023-03-15T01:59:10;7.60;96.90
42989;DHT22;28622;43.716;20.668;2023-03-15T02:01:38;7.50;97.50
42989;DHT22;28622;43.716;20.668;2023-03-15T02:04:13;7.50;97.90
42989;DHT22;28622;43.716;20.668;2023-03-15T02:06:39;7.40;97.60
42989;DHT22;28622;43.716;20.668;2023-03-15T02:09:13;7.40;97.80
42989;DHT22;28622;43.716;20.668;2023-03-15T02:11:41;7.40;97.40
42989;DHT22;28622;43.716;20.668;2023-03-15T02:14:10;7.30;97.50
42989;DHT22;28622;43.716;20.668;2023-03-15T02:16:37;7.30;97.50
42989;DHT22;28622;43.716;20.668;2023-03-15T02:19:05;7.30;97.80
42989;DHT22;28622;43.716;20.668;2023-03-15T02:22:00;7.30;97.90
42989;DHT22;28622;43.716;20.668;2023-03-15T02:24:53;7.30;98.60
42989;DHT22;28622;43.716;20.668;2023-03-15T02:27:32;7.20;99.20
42989;DHT22;28622;43.716;20.668;2023-03-15T02:30:00;7.20;99.90
42989;DHT22;28622;43.716;20.668;2023-03-15T02:32:28;7.10;99.50
42989;DHT22;28622;43.716;20.668;2023-03-15T02:34:54;7.00;99.90
42989;DHT22;28622;43.716;20.668;2023-03-15T02:37:19;7.00;99.90
42989;DHT22;28622;43.716;20.668;2023-03-15T02:39:46;7.00;99.90
42989;DHT22;28622;43.716;20.668;2023-03-15T02:42:12;7.10;99.90
42989;DHT22;28622;43.716;20.668;2023-03-15T02:44:41;7.10;99.90
42989;DHT22;28622;43.716;20.668;2023-03-15T02:47:15;7.00;99.90
42989;DHT22;28622;43.716;20.668;2023-03-15T02:49:45;7.00;99.90
42989;DHT22;28622;43.716;20.668;2023-03-15T02:52:13;7.00;99.90
42989;DHT22;28622;43.716;20.668;2023-03-15T02:54:39;7.00;99.90
42989;DHT22;28622;43.716;20.668;2023-03-15T02:57:08;6.90;99.90
42989;DHT22;28622;43.716;20.668;2023-03-15T02:59:34;6.70;99.90
42989;DHT22;28622;43.716;20.668;2023-03-15T03:02:00;6.70;99.90
42989;DHT22;28622;43.716;20.668;2023-03-15T03:04:26;6.80;99.90
42989;DHT22;28622;43.716;20.668;2023-03-15T03:06:51;6.80;99.90
42989;DHT22;28622;43.716;20.668;2023-03-15T03:09:17;6.80;99.90
42989;DHT22;28622;43.716;20.668;2023-03-15T03:11:43;6.80;99.90
42989;DHT22;28622;43.716;20.668;2023-03-15T03:14:09;6.80;99.90
42989;DHT22;28622;43.716;20.668;2023-03-15T03:16:38;6.80;99.90
42989;DHT22;28622;43.716;20.668;2023-03-15T03:19:04;6.90;99.90
42989;DHT22;28622;43.716;20.668;2023-03-15T03:21:30;6.90;99.90
42989;DHT22;28622;43.716;20.668;2023-03-15T03:23:56;6.90;99.90
42989;DHT22;28622;43.716;20.668;2023-03-15T03:26:21;6.90;99.90
42989;DHT22;28622;43.716;20.668;2023-03-15T03:28:53;6.80;99.90
42989;DHT22;28622;43.716;20.668;2023-03-15T03:31:27;6.70;99.90
42989;DHT22;28622;43.716;20.668;2023-03-15T03:33:55;6.70;99.90
42989;DHT22;28622;43.716;20.668;2023-03-15T03:36:21;6.70;99.90
42989;DHT22;28622;43.716;20.668;2023-03-15T03:38:49;6.70;99.90
42989;DHT22;28622;43.716;20.668;2023-03-15T03:41:15;6.60;99.90
42989;DHT22;28622;43.716;20.668;2023-03-15T03:43:41;6.60;99.90
42989;DHT22;28622;43.716;20.668;2023-03-15T03:46:08;6.50;99.90
42989;DHT22;28622;43.716;20.668;2023-03-15T03:48:34;6.50;99.90
42989;DHT22;28622;43.716;20.668;2023-03-15T03:50:59;6.50;99.90
42989;DHT22;28622;43.716;20.668;2023-03-15T03:53:25;6.50;99.90
42989;DHT22;28622;43.716;20.668;2023-03-15T03:55:51;6.40;99.90
42989;DHT22;28622;43.716;20.668;2023-03-15T03:58:19;6.30;99.90
42989;DHT22;28622;43.716;20.668;2023-03-15T04:00:45;6.30;99.90
42989;DHT22;28622;43.716;20.668;2023-03-15T04:03:11;6.20;99.90
42989;DHT22;28622;43.716;20.668;2023-03-15T04:05:37;6.20;99.90
42989;DHT22;28622;43.716;20.668;2023-03-15T04:08:03;6.20;99.90
42989;DHT22;28622;43.716;20.668;2023-03-15T04:10:29;6.10;99.90
42989;DHT22;28622;43.716;20.668;2023-03-15T04:13:00;6.20;99.90
42989;DHT22;28622;43.716;20.668;2023-03-15T04:15:26;6.10;99.90
42989;DHT22;28622;43.716;20.668;2023-03-15T04:17:52;6.10;99.90
42989;DHT22;28622;43.716;20.668;2023-03-15T04:20:24;6.00;99.90
42989;DHT22;28622;43.716;20.668;2023-03-15T04:22:51;6.00;99.90
42989;DHT22;28622;43.716;20.668;2023-03-15T04:25:18;5.90;99.90
42989;DHT22;28622;43.716;20.668;2023-03-15T04:27:44;5.90;99.90
42989;DHT22;28622;43.716;20.668;2023-03-15T04:30:11;6.00;99.90
42989;DHT22;28622;43.716;20.668;2023-03-15T04:32:37;6.10;99.90
42989;DHT22;28622;43.716;20.668;2023-03-15T04:35:03;6.10;99.90
42989;DHT22;28622;43.716;20.668;2023-03-15T04:37:30;6.10;99.90
42989;DHT22;28622;43.716;20.668;2023-03-15T04:39:58;6.20;99.90
42989;DHT22;28622;43.716;20.668;2023-03-15T04:42:25;6.10;99.90
42989;DHT22;28622;43.716;20.668;2023-03-15T04:44:51;6.10;99.90
42989;DHT22;28622;43.716;20.668;2023-03-15T04:47:18;6.10;99.90
42989;DHT22;28622;43.716;20.668;2023-03-15T04:49:45;6.10;99.90
42989;DHT22;28622;43.716;20.668;2023-03-15T04:52:10;6.00;99.90
42989;DHT22;28622;43.716;20.668;2023-03-15T04:54:36;6.00;99.90
42989;DHT22;28622;43.716;20.668;2023-03-15T04:57:04;6.10;99.90
42989;DHT22;28622;43.716;20.668;2023-03-15T04:59:29;6.20;99.90
42989;DHT22;28622;43.716;20.668;2023-03-15T05:01:55;6.30;99.90
42989;DHT22;28622;43.716;20.668;2023-03-15T05:04:21;6.20;99.90
42989;DHT22;28622;43.716;20.668;2023-03-15T05:06:47;6.20;99.90
42989;DHT22;28622;43.716;20.668;2023-03-15T05:09:12;6.10;99.90
42989;DHT22;28622;43.716;20.668;2023-03-15T05:11:44;6.10;99.90
42989;DHT22;28622;43.716;20.668;2023-03-15T05:14:10;6.10;99.90
42989;DHT22;28622;43.716;20.668;2023-03-15T05:16:37;6.10;99.90
42989;DHT22;28622;43.716;20.668;2023-03-15T05:19:03;6.10;99.90
42989;DHT22;28622;43.716;20.668;2023-03-15T05:21:29;6.20;99.90
42989;DHT22;28622;43.716;20.668;2023-03-15T05:23:54;6.30;99.90
42989;DHT22;28622;43.716;20.668;2023-03-15T05:26:20;6.40;99.90
42989;DHT22;28622;43.716;20.668;2023-03-15T05:28:46;6.40;99.90
42989;DHT22;28622;43.716;20.668;2023-03-15T05:31:11;6.50;99.90
42989;DHT22;28622;43.716;20.668;2023-03-15T05:33:37;6.60;99.90
42989;DHT22;28622;43.716;20.668;2023-03-15T05:36:05;6.80;99.90
42989;DHT22;28622;43.716;20.668;2023-03-15T05:38:31;6.80;99.90
42989;DHT22;28622;43.716;20.668;2023-03-15T05:40:56;6.90;99.90
42989;DHT22;28622;43.716;20.668;2023-03-15T05:43:22;7.00;99.90
42989;DHT22;28622;43.716;20.668;2023-03-15T05:45:48;7.10;99.90
42989;DHT22;28622;43.716;20.668;2023-03-15T05:48:14;7.10;99.90
42989;DHT22;28622;43.716;20.668;2023-03-15T05:50:41;7.10;99.90
42989;DHT22;28622;43.716;20.668;2023-03-15T05:53:06;7.20;99.90
42989;DHT22;28622;43.716;20.668;2023-03-15T05:55:32;7.30;99.90
42989;DHT22;28622;43.716;20.668;2023-03-15T05:57:58;7.30;99.90
42989;DHT22;28622;43.716;20.668;2023-03-15T06:00:23;7.30;99.90
42989;DHT22;28622;43.716;20.668;2023-03-15T06:02:49;7.40;99.90
42989;DHT22;28622;43.716;20.668;2023-03-15T06:05:15;7.40;99.90
42989;DHT22;28622;43.716;20.668;2023-03-15T06:07:41;7.50;99.90
42989;DHT22;28622;43.716;20.668;2023-03-15T06:10:07;7.60;99.90
42989;DHT22;28622;43.716;20.668;2023-03-15T06:12:33;7.60;99.90
42989;DHT22;28622;43.716;20.668;2023-03-15T06:14:59;7.60;99.90
42989;DHT22;28622;43.716;20.668;2023-03-15T06:17:24;7.70;99.90
42989;DHT22;28622;43.716;20.668;2023-03-15T06:19:50;7.70;99.90
42989;DHT22;28622;43.716;20.668;2023-03-15T06:22:16;7.70;99.90
42989;DHT22;28622;43.716;20.668;2023-03-15T06:24:45;7.80;99.90
42989;DHT22;28622;43.716;20.668;2023-03-15T06:27:11;7.90;99.90
42989;DHT22;28622;43.716;20.668;2023-03-15T06:29:36;7.90;99.90
42989;DHT22;28622;43.716;20.668;2023-03-15T06:32:03;8.00;99.90
42989;DHT22;28622;43.716;20.668;2023-03-15T06:34:29;8.10;99.90
42989;DHT22;28622;43.716;20.668;2023-03-15T06:36:55;8.10;99.90
42989;DHT22;28622;43.716;20.668;2023-03-15T06:39:20;8.20;99.90
42989;DHT22;28622;43.716;20.668;2023-03-15T06:41:47;8.30;99.90
42989;DHT22;28622;43.716;20.668;2023-03-15T06:44:13;8.30;99.90
42989;DHT22;28622;43.716;20.668;2023-03-15T06:46:39;8.50;99.90
42989;DHT22;28622;43.716;20.668;2023-03-15T06:49:05;8.50;99.90
42989;DHT22;28622;43.716;20.668;2023-03-15T06:51:31;8.60;99.90
42989;DHT22;28622;43.716;20.668;2023-03-15T06:53:57;8.70;99.90
42989;DHT22;28622;43.716;20.668;2023-03-15T06:56:22;8.80;99.90
42989;DHT22;28622;43.716;20.668;2023-03-15T06:58:48;8.80;99.90
42989;DHT22;28622;43.716;20.668;2023-03-15T07:01:15;8.90;99.90
42989;DHT22;28622;43.716;20.668;2023-03-15T07:03:41;9.00;99.90
42989;DHT22;28622;43.716;20.668;2023-03-15T07:06:07;9.10;99.90
42989;DHT22;28622;43.716;20.668;2023-03-15T07:08:32;9.20;99.90
42989;DHT22;28622;43.716;20.668;2023-03-15T07:10:59;9.20;99.90
42989;DHT22;28622;43.716;20.668;2023-03-15T07:13:25;9.40;99.90
42989;DHT22;28622;43.716;20.668;2023-03-15T07:15:52;9.50;99.90
42989;DHT22;28622;43.716;20.668;2023-03-15T07:18:18;9.60;99.90
42989;DHT22;28622;43.716;20.668;2023-03-15T07:20:44;9.70;99.90
42989;DHT22;28622;43.716;20.668;2023-03-15T07:23:10;9.90;99.90
42989;DHT22;28622;43.716;20.668;2023-03-15T07:25:36;10.00;99.90
42989;DHT22;28622;43.716;20.668;2023-03-15T07:28:01;10.20;99.90
42989;DHT22;28622;43.716;20.668;2023-03-15T07:30:27;10.40;99.90
42989;DHT22;28622;43.716;20.668;2023-03-15T07:32:53;10.50;99.90
42989;DHT22;28622;43.716;20.668;2023-03-15T07:35:19;10.70;99.90
42989;DHT22;28622;43.716;20.668;2023-03-15T07:37:44;10.80;99.80
42989;DHT22;28622;43.716;20.668;2023-03-15T07:40:11;10.80;99.30
42989;DHT22;28622;43.716;20.668;2023-03-15T07:42:38;10.80;98.90
42989;DHT22;28622;43.716;20.668;2023-03-15T07:45:05;10.80;97.60
42989;DHT22;28622;43.716;20.668;2023-03-15T07:47:31;10.80;96.40
42989;DHT22;28622;43.716;20.668;2023-03-15T07:49:57;10.80;95.80
42989;DHT22;28622;43.716;20.668;2023-03-15T07:52:23;10.90;95.60
42989;DHT22;28622;43.716;20.668;2023-03-15T07:54:49;10.90;95.80
42989;DHT22;28622;43.716;20.668;2023-03-15T07:57:15;11.00;96.00
42989;DHT22;28622;43.716;20.668;2023-03-15T07:59:41;11.00;95.70
42989;DHT22;28622;43.716;20.668;2023-03-15T08:02:10;10.90;95.80
42989;DHT22;28622;43.716;20.668;2023-03-15T08:04:36;10.80;96.20
42989;DHT22;28622;43.716;20.668;2023-03-15T08:07:02;10.80;96.40
42989;DHT22;28622;43.716;20.668;2023-03-15T08:09:28;10.70;96.60
42989;DHT22;28622;43.716;20.668;2023-03-15T08:11:54;10.70;97.30
42989;DHT22;28622;43.716;20.668;2023-03-15T08:14:19;10.60;96.40
42989;DHT22;28622;43.716;20.668;2023-03-15T08:16:45;10.60;96.00
42989;DHT22;28622;43.716;20.668;2023-03-15T08:19:11;10.60;96.70
42989;DHT22;28622;43.716;20.668;2023-03-15T08:21:37;10.60;97.00
42989;DHT22;28622;43.716;20.668;2023-03-15T08:24:02;10.70;97.60
42989;DHT22;28622;43.716;20.668;2023-03-15T08:26:28;10.80;97.80
42989;DHT22;28622;43.716;20.668;2023-03-15T08:28:54;10.90;97.90
42989;DHT22;28622;43.716;20.668;2023-03-15T08:31:21;11.10;97.70
42989;DHT22;28622;43.716;20.668;2023-03-15T08:33:47;11.10;97.50
42989;DHT22;28622;43.716;20.668;2023-03-15T08:36:13;11.20;97.20
42989;DHT22;28622;43.716;20.668;2023-03-15T08:38:38;11.30;97.40
42989;DHT22;28622;43.716;20.668;2023-03-15T08:41:04;11.40;97.20
42989;DHT22;28622;43.716;20.668;2023-03-15T08:43:30;11.40;97.40
42989;DHT22;28622;43.716;20.668;2023-03-15T08:45:56;11.40;97.20
42989;DHT22;28622;43.716;20.668;2023-03-15T08:48:23;11.40;97.90
42989;DHT22;28622;43.716;20.668;2023-03-15T08:50:48;11.50;98.10
42989;DHT22;28622;43.716;20.668;2023-03-15T08:53:14;11.40;98.70
42989;DHT22;28622;43.716;20.668;2023-03-15T08:55:40;11.50;99.30
42989;DHT22;28622;43.716;20.668;2023-03-15T08:58:06;11.50;99.70
42989;DHT22;28622;43.716;20.668;2023-03-15T09:00:31;11.50;98.70
42989;DHT22;28622;43.716;20.668;2023-03-15T09:02:57;11.50;99.10
42989;DHT22;28622;43.716;20.668;2023-03-15T09:05:24;11.60;99.60
42989;DHT22;28622;43.716;20.668;2023-03-15T09:07:51;11.60;98.90
42989;DHT22;28622;43.716;20.668;2023-03-15T09:10:20;11.60;99.90
42989;DHT22;28622;43.716;20.668;2023-03-15T09:12:50;11.70;99.90
42989;DHT22;28622;43.716;20.668;2023-03-15T09:15:18;11.70;99.90
42989;DHT22;28622;43.716;20.668;2023-03-15T09:17:43;11.70;99.90
42989;DHT22;28622;43.716;20.668;2023-03-15T09:20:11;11.80;99.90
42989;DHT22;28622;43.716;20.668;2023-03-15T09:22:40;11.70;99.90
42989;DHT22;28622;43.716;20.668;2023-03-15T09:25:07;11.70;99.90
42989;DHT22;28622;43.716;20.668;2023-03-15T09:27:34;11.80;99.90
42989;DHT22;28622;43.716;20.668;2023-03-15T09:30:00;11.70;99.90
42989;DHT22;28622;43.716;20.668;2023-03-15T09:32:26;11.70;99.90
42989;DHT22;28622;43.716;20.668;2023-03-15T09:34:52;11.60;99.90
42989;DHT22;28622;43.716;20.668;2023-03-15T09:37:17;11.70;99.90
42989;DHT22;28622;43.716;20.668;2023-03-15T09:39:45;11.60;99.90
42989;DHT22;28622;43.716;20.668;2023-03-15T09:42:21;11.50;99.90
42989;DHT22;28622;43.716;20.668;2023-03-15T09:45:21;11.30;99.90
42989;DHT22;28622;43.716;20.668;2023-03-15T09:48:14;11.10;99.90
42989;DHT22;28622;43.716;20.668;2023-03-15T09:50:50;11.10;99.90
42989;DHT22;28622;43.716;20.668;2023-03-15T09:53:25;11.10;99.90
42989;DHT22;28622;43.716;20.668;2023-03-15T09:55:52;11.20;99.90
42989;DHT22;28622;43.716;20.668;2023-03-15T09:58:23;11.10;99.90
42989;DHT22;28622;43.716;20.668;2023-03-15T10:01:01;11.10;99.90
42989;DHT22;28622;43.716;20.668;2023-03-15T10:03:54;11.10;99.90
42989;DHT22;28622;43.716;20.668;2023-03-15T10:06:30;11.00;99.90
42989;DHT22;28622;43.716;20.668;2023-03-15T10:09:05;10.90;99.90
42989;DHT22;28622;43.716;20.668;2023-03-15T10:16:49;11.00;99.90
42989;DHT22;28622;43.716;20.668;2023-03-15T10:24:45;10.90;99.90
42989;DHT22;28622;43.716;20.668;2023-03-15T10:27:19;10.90;99.90
42989;DHT22;28622;43.716;20.668;2023-03-15T10:29:48;10.90;99.90
42989;DHT22;28622;43.716;20.668;2023-03-15T10:32:21;10.90;99.90
42989;DHT22;28622;43.716;20.668;2023-03-15T10:34:52;10.90;99.90
42989;DHT22;28622;43.716;20.668;2023-03-15T10:37:20;10.80;99.90
42989;DHT22;28622;43.716;20.668;2023-03-15T10:39:52;10.60;99.90
42989;DHT22;28622;43.716;20.668;2023-03-15T10:42:37;10.50;99.90
42989;DHT22;28622;43.716;20.668;2023-03-15T10:45:21;10.50;99.90
42989;DHT22;28622;43.716;20.668;2023-03-15T10:47:48;10.50;99.90
42989;DHT22;28622;43.716;20.668;2023-03-15T10:50:33;10.50;99.90
42989;DHT22;28622;43.716;20.668;2023-03-15T10:53:01;10.30;99.90
42989;DHT22;28622;43.716;20.668;2023-03-15T10:55:35;10.30;99.90
42989;DHT22;28622;43.716;20.668;2023-03-15T10:58:28;10.30;99.90
42989;DHT22;28622;43.716;20.668;2023-03-15T11:01:03;10.40;99.90
42989;DHT22;28622;43.716;20.668;2023-03-15T11:03:32;10.30;99.90
42989;DHT22;28622;43.716;20.668;2023-03-15T11:06:00;10.20;99.90
42989;DHT22;28622;43.716;20.668;2023-03-15T11:08:40;10.10;99.90
42989;DHT22;28622;43.716;20.668;2023-03-15T11:11:07;10.10;99.90
42989;DHT22;28622;43.716;20.668;2023-03-15T11:13:37;10.10;99.90
42989;DHT22;28622;43.716;20.668;2023-03-15T11:16:18;10.00;99.90
42989;DHT22;28622;43.716;20.668;2023-03-15T11:18:50;10.00;99.90
42989;DHT22;28622;43.716;20.668;2023-03-15T11:21:27;9.90;99.90
42989;DHT22;28622;43.716;20.668;2023-03-15T11:23:55;9.90;99.90
42989;DHT22;28622;43.716;20.668;2023-03-15T11:26:24;9.80;99.90
42989;DHT22;28622;43.716;20.668;2023-03-15T11:28:54;9.90;99.90
42989;DHT22;28622;43.716;20.668;2023-03-15T11:31:21;9.80;99.90
42989;DHT22;28622;43.716;20.668;2023-03-15T11:33:59;9.80;99.90
42989;DHT22;28622;43.716;20.668;2023-03-15T11:36:31;9.80;99.90
42989;DHT22;28622;43.716;20.668;2023-03-15T11:38:59;9.70;99.90
42989;DHT22;28622;43.716;20.668;2023-03-15T11:41:34;9.60;99.90
42989;DHT22;28622;43.716;20.668;2023-03-15T11:44:11;9.60;99.90
42989;DHT22;28622;43.716;20.668;2023-03-15T11:49:50;9.50;99.90
42989;DHT22;28622;43.716;20.668;2023-03-15T11:52:17;9.50;99.90
42989;DHT22;28622;43.716;20.668;2023-03-15T11:54:44;9.40;99.90
42989;DHT22;28622;43.716;20.668;2023-03-15T11:57:35;9.40;99.90
42989;DHT22;28622;43.716;20.668;2023-03-15T12:02:54;9.30;99.90
42989;DHT22;28622;43.716;20.668;2023-03-15T12:05:40;9.30;99.90
42989;DHT22;28622;43.716;20.668;2023-03-15T12:10:52;9.10;99.90
42989;DHT22;28622;43.716;20.668;2023-03-15T12:13:29;9.00;99.90
42989;DHT22;28622;43.716;20.668;2023-03-15T12:15:56;9.00;99.90
42989;DHT22;28622;43.716;20.668;2023-03-15T12:18:41;8.90;99.90
42989;DHT22;28622;43.716;20.668;2023-03-15T12:26:25;8.80;99.90
42989;DHT22;28622;43.716;20.668;2023-03-15T12:29:05;8.70;99.90
42989;DHT22;28622;43.716;20.668;2023-03-15T12:37:42;8.50;99.90
42989;DHT22;28622;43.716;20.668;2023-03-15T12:48:13;8.30;99.90
42989;DHT22;28622;43.716;20.668;2023-03-15T12:55:50;8.10;99.90
42989;DHT22;28622;43.716;20.668;2023-03-15T12:58:18;8.10;99.90
42989;DHT22;28622;43.716;20.668;2023-03-15T13:00:46;8.00;99.90
42989;DHT22;28622;43.716;20.668;2023-03-15T13:03:15;8.00;99.90
42989;DHT22;28622;43.716;20.668;2023-03-15T13:16:59;7.80;99.90
42989;DHT22;28622;43.716;20.668;2023-03-15T13:19:34;7.70;99.90
42989;DHT22;28622;43.716;20.668;2023-03-15T13:22:23;7.60;99.90
42989;DHT22;28622;43.716;20.668;2023-03-15T13:27:44;7.50;99.90
42989;DHT22;28622;43.716;20.668;2023-03-15T13:33:22;7.40;99.90
42989;DHT22;28622;43.716;20.668;2023-03-15T13:35:53;7.20;99.90
42989;DHT22;28622;43.716;20.668;2023-03-15T13:40:48;6.90;99.90
42989;DHT22;28622;43.716;20.668;2023-03-15T13:43:14;6.90;99.90
42989;DHT22;28622;43.716;20.668;2023-03-15T13:48:09;6.70;99.90
42989;DHT22;28622;43.716;20.668;2023-03-15T13:50:36;6.50;99.90
42989;DHT22;28622;43.716;20.668;2023-03-15T13:53:02;6.30;99.90
42989;DHT22;28622;43.716;20.668;2023-03-15T13:55:33;6.40;99.90
42989;DHT22;28622;43.716;20.668;2023-03-15T13:58:05;6.30;99.90
42989;DHT22;28622;43.716;20.668;2023-03-15T14:00:32;6.30;99.90
42989;DHT22;28622;43.716;20.668;2023-03-15T14:03:01;6.20;99.90
42989;DHT22;28622;43.716;20.668;2023-03-15T14:05:32;6.20;99.90
42989;DHT22;28622;43.716;20.668;2023-03-15T14:08:14;6.20;99.90
42989;DHT22;28622;43.716;20.668;2023-03-15T14:10:42;6.30;99.90
42989;DHT22;28622;43.716;20.668;2023-03-15T14:13:27;6.30;99.90
42989;DHT22;28622;43.716;20.668;2023-03-15T14:15:58;6.30;99.90
42989;DHT22;28622;43.716;20.668;2023-03-15T14:18:29;6.30;99.90
42989;DHT22;28622;43.716;20.668;2023-03-15T14:21:12;6.30;99.90
42989;DHT22;28622;43.716;20.668;2023-03-15T14:23:41;6.30;99.90
42989;DHT22;28622;43.716;20.668;2023-03-15T14:31:24;6.20;99.90
42989;DHT22;28622;43.716;20.668;2023-03-15T14:33:53;6.20;99.90
42989;DHT22;28622;43.716;20.668;2023-03-15T14:36:28;6.20;99.90
42989;DHT22;28622;43.716;20.668;2023-03-15T14:38:57;6.20;99.90
42989;DHT22;28622;43.716;20.668;2023-03-15T14:43:50;6.20;99.90
42989;DHT22;28622;43.716;20.668;2023-03-15T14:46:16;6.20;99.90
42989;DHT22;28622;43.716;20.668;2023-03-15T14:48:41;6.30;99.90
42989;DHT22;28622;43.716;20.668;2023-03-15T14:51:18;6.30;99.90
42989;DHT22;28622;43.716;20.668;2023-03-15T14:53:47;6.30;99.90
42989;DHT22;28622;43.716;20.668;2023-03-15T14:56:13;6.30;99.90
42989;DHT22;28622;43.716;20.668;2023-03-15T14:58:40;6.30;99.90
42989;DHT22;28622;43.716;20.668;2023-03-15T15:01:08;6.20;99.90
42989;DHT22;28622;43.716;20.668;2023-03-15T15:03:35;6.20;99.90
42989;DHT22;28622;43.716;20.668;2023-03-15T15:06:07;6.20;99.90
42989;DHT22;28622;43.716;20.668;2023-03-15T15:08:36;6.20;99.90
42989;DHT22;28622;43.716;20.668;2023-03-15T15:11:05;6.20;99.90
42989;DHT22;28622;43.716;20.668;2023-03-15T15:13:34;6.10;99.90
42989;DHT22;28622;43.716;20.668;2023-03-15T15:16:00;6.10;99.90
42989;DHT22;28622;43.716;20.668;2023-03-15T15:18:29;6.10;99.90
42989;DHT22;28622;43.716;20.668;2023-03-15T15:20:58;6.20;99.90
42989;DHT22;28622;43.716;20.668;2023-03-15T15:23:26;6.20;99.90
42989;DHT22;28622;43.716;20.668;2023-03-15T15:25:55;6.20;99.90
42989;DHT22;28622;43.716;20.668;2023-03-15T15:28:22;6.10;99.90
42989;DHT22;28622;43.716;20.668;2023-03-15T15:30:48;6.10;99.90
42989;DHT22;28622;43.716;20.668;2023-03-15T15:33:13;6.10;99.90
42989;DHT22;28622;43.716;20.668;2023-03-15T15:35:39;6.10;99.90
42989;DHT22;28622;43.716;20.668;2023-03-15T15:38:11;6.10;99.90
42989;DHT22;28622;43.716;20.668;2023-03-15T15:40:37;6.10;99.90
42989;DHT22;28622;43.716;20.668;2023-03-15T15:43:04;6.10;99.90
42989;DHT22;28622;43.716;20.668;2023-03-15T15:45:30;6.00;99.90
42989;DHT22;28622;43.716;20.668;2023-03-15T15:47:59;6.00;99.90
42989;DHT22;28622;43.716;20.668;2023-03-15T15:50:34;6.00;99.90
42989;DHT22;28622;43.716;20.668;2023-03-15T15:53:03;6.00;99.90
42989;DHT22;28622;43.716;20.668;2023-03-15T15:55:32;5.90;99.90
42989;DHT22;28622;43.716;20.668;2023-03-15T15:57:59;5.90;99.90
42989;DHT22;28622;43.716;20.668;2023-03-15T16:00:27;5.80;99.90
42989;DHT22;28622;43.716;20.668;2023-03-15T16:02:54;5.80;99.90
42989;DHT22;28622;43.716;20.668;2023-03-15T16:05:23;5.70;99.90
42989;DHT22;28622;43.716;20.668;2023-03-15T16:07:50;5.70;99.90
42989;DHT22;28622;43.716;20.668;2023-03-15T16:10:23;5.70;99.90
42989;DHT22;28622;43.716;20.668;2023-03-15T16:12:51;5.70;99.90
42989;DHT22;28622;43.716;20.668;2023-03-15T16:15:17;5.70;99.90
42989;DHT22;28622;43.716;20.668;2023-03-15T16:17:44;5.80;99.90
42989;DHT22;28622;43.716;20.668;2023-03-15T16:20:13;5.70;99.90
42989;DHT22;28622;43.716;20.668;2023-03-15T16:22:42;5.80;99.90
42989;DHT22;28622;43.716;20.668;2023-03-15T16:25:14;5.80;99.90
42989;DHT22;28622;43.716;20.668;2023-03-15T16:27:40;5.80;99.90
42989;DHT22;28622;43.716;20.668;2023-03-15T16:30:11;5.90;99.90
42989;DHT22;28622;43.716;20.668;2023-03-15T16:32:41;5.80;99.90
42989;DHT22;28622;43.716;20.668;2023-03-15T16:35:09;5.80;99.90
42989;DHT22;28622;43.716;20.668;2023-03-15T16:37:40;5.80;99.90
42989;DHT22;28622;43.716;20.668;2023-03-15T16:40:17;5.70;99.90
42989;DHT22;28622;43.716;20.668;2023-03-15T16:42:46;5.70;99.90
42989;DHT22;28622;43.716;20.668;2023-03-15T16:45:14;5.70;99.90
42989;DHT22;28622;43.716;20.668;2023-03-15T16:47:40;5.70;99.90
42989;DHT22;28622;43.716;20.668;2023-03-15T16:50:06;5.70;99.90
42989;DHT22;28622;43.716;20.668;2023-03-15T16:52:32;5.70;99.90
42989;DHT22;28622;43.716;20.668;2023-03-15T16:54:59;5.70;99.90